ADDS METAR Data INFO
IDs: Format: Raw Decoded Include TAF

Data at: 1115 UTC 21 Feb 2018

KWLD 201454Z AUTO 35024G30KT 10SM BKN014 OVC021 M03/M04 A3000 RMK AO2 PK WND 35030/1448 LTG DSNT E UPE09SNB11E20 TSE08 SLP170 P0000 60067 I3013 T10331044 53034 $
KWLD 201436Z AUTO 34021G28KT 10SM OVC012 M03/M04 A2998 RMK AO2 PK WND 35029/1415 LTG DSNT N-SE UPE09SNB11E20 TSE08 P0000 T10331039 $
KWLD 201419Z AUTO 35019G29KT 7SM VCTS -SN OVC010 M03/M03 A2996 RMK AO2 PK WND 35029/1415 LTG DSNT E-S UPE09SNB11 TSE08 P0000 T10281033 $
KWLD 201412Z AUTO 33020G27KT 6SM -SN BR OVC010 M02/M03 A2998 RMK AO2 PK WND 33027/1412 LTG DSNT SE-W UPE09SNB11 TSE08 CIG 009V014 P0000 T10221028 $
KWLD 201349Z AUTO 35017G26KT 9SM TSUP BKN010 OVC035 M01/M01 A2993 RMK AO2 PK WND 34028/1335 LTG DSNT NE AND S AND SW UPB13E22B48FZRAE13B22E37SNB37E48 TSB48 PRESRR SLP147 P0013 I1003 T10111011 $
KWLD 201348Z AUTO 35018G26KT 9SM TSUP BKN010 OVC035 M01/M01 A2993 RMK AO2 PK WND 34028/1335 LTG DSNT NE AND SW UPB13E22B48FZRAE13B22E37SNB37E48 TSB48 P0013 I1003 $
KWLD 201338Z AUTO 35022G28KT 7SM -SN BKN008 BKN013 OVC037 M01/M01 A2989 RMK AO2 PK WND 34028/1335 LTG DSNT ALQDS UPB13E22FZRAE13B22E37SNB37 PRESFR P0012 I1003 T10111011 $
KWLD 201336Z AUTO 34024G28KT 6SM FZRA BR BKN010 BKN013 OVC039 M01/M01 A2988 RMK AO2 PK WND 34028/1335 LTG DSNT ALQDS UPB13E22FZRAE13B22 PRESFR P0012 I1003 T10111011 $
KWLD 201323Z AUTO 34017KT 9SM FZRA BKN009 BKN013 OVC034 M01/M01 A2992 RMK AO2 LTG DSNT W-NE UPB13E22FZRAE13B22 P0006 I1002 T10111011 $
KWLD 201314Z AUTO 35019G24KT 10SM VCTS UP BKN009 BKN017 OVC035 M01/M01 A2990 RMK AO2 LTG DSNT ALQDS UPB13FZRAE13 P0005 I1002 T10061006 $
KWLD 201312Z AUTO 33018G24KT 10SM VCTS -FZRA SCT007 BKN019 OVC039 M01/M01 A2991 RMK AO2 LTG DSNT ALQDS P0005 I1002 T10061006 $
KWLD 201303Z AUTO 34020KT 5SM VCTS FZRA BR FEW007 BKN017 OVC042 M01/M01 A2989 RMK AO2 LTG DSNT ALQDS P0004 I1001 T10061006 $
KWLD 201254Z AUTO 34014KT 5SM VCTS FZRA BR FEW008 BKN031 OVC046 M01/M01 A2988 RMK AO2 PK WND 32029/1156 LTG DSNT ALQDS TSE36 SLP127 P0054 I1010 T10061006 $
KWLD 201246Z AUTO 02013G19KT 5SM VCTS FZRA BR FEW008 SCT022 OVC040 M01/M01 A2986 RMK AO2 PK WND 32029/1156 LTG DSNT ALQDS TSE36 P0051 I1009 T10061006 $
KWLD 201238Z AUTO 01013G19KT 8SM VCTS -FZRA FEW008 SCT024 OVC040 M01/M01 A2985 RMK AO2 PK WND 32029/1156 LTG DSNT ALQDS TSE36 P0049 I1009 T10111011 $
KWLD 201231Z AUTO 02010KT 3SM -TSFZRA BR FEW006 BKN024 OVC046 M01/M01 A2986 RMK AO2 PK WND 32029/1156 LTG DSNT ALQDS P0047 I1009 T10111011 $
KWLD 201218Z AUTO 01017G22KT 1 3/4SM TSFZRA BR SCT007 BKN024 OVC036 M01/M01 A2987 RMK AO2 PK WND 32029/1156 LTG DSNT ALQDS P0030 I1007 T10111011 $
KWLD 201202Z AUTO 34018G29KT 3SM TSFZRA BR BKN006 OVC032 M01/M01 A2991 RMK AO2 PK WND 32029/1156 LTG DSNT ALQDS CIG 004V009 P0004 I1002 T10111011 $
KWLD 201154Z AUTO 36020G26KT 4SM TSFZRA BR OVC004 M02/M02 A2986 RMK AO2 PK WND 33026/1137 WSHFT 1131 LTG DSNT ALQDS FZRAB20E39B44 TSB49 CIG 003V009 SLP123 P0003 60003 70004 I1004 I6006 T10171017 10000 21017 53021 $
KWLD 201145Z AUTO 33018G26KT 4SM VCTS -FZRA BR OVC004 M02/M02 A2988 RMK AO2 PK WND 33026/1137 WSHFT 1131 LTG DSNT SW-N FZRAB20E39B44 P0000 I1002 T10171017 $
KWLD 201139Z AUTO 33019G26KT 4SM VCTS BR OVC004 M02/M02 A2988 RMK AO2 PK WND 33026/1137 LTG DSNT SW-N FZRAB20E39 PRESRR P0000 I1001 T10171017 $
KWLD 201126Z AUTO 02014KT 3SM -FZRA BR OVC004 M02/M02 A2980 RMK AO2 LTG DSNT SW-N FZRAB20 P0000 I1001 T10171017 $
KWLD 201054Z AUTO 36014KT 4SM BR OVC004 M02/M02 A2981 RMK AO2 LTG DSNT W AND NW SLP103 I1002 T10171017 $
KWLD 201033Z AUTO 01015KT 3SM BR OVC004 M01/M01 A2980 RMK AO2 I1001 T10111011 $
KWLD 200954Z AUTO 36013KT 2 1/2SM BR OVC003 M01/M01 A2981 RMK AO2 SLP105 I1000 T10111011 $
KWLD 200937Z AUTO 36014KT 2SM BR OVC002 M01/M01 A2981 RMK AO2 T10061006 $
KWLD 200854Z AUTO 35011KT 1 1/4SM BR OVC002 00/00 A2980 RMK AO2 SLP100 T00000000 53006 $
KWLD 200849Z AUTO 35011KT 1SM BR OVC002 00/00 A2980 RMK AO2 $
KWLD 200841Z AUTO 35012KT 1SM BR VV003 00/00 A2979 RMK AO2 T00000000 $
KWLD 200754Z AUTO 03006KT 1SM BR OVC002 00/00 A2978 RMK AO2 SLP091 T00000000 $
KWLD 200701Z AUTO 01008KT 1 3/4SM BR OVC002 00/00 A2978 RMK AO2 T00000000 $
KWLD 200654Z AUTO 36009KT 2SM BR OVC002 M01/M01 A2978 RMK AO2 SLP094 T10061006 $
KWLD 200607Z AUTO 01009KT 2 1/2SM BR OVC003 M01/M01 A2978 RMK AO2 T10061006 $
KWLD 200554Z AUTO 36009KT 2SM BR OVC002 M01/M01 A2979 RMK AO2 SLP094 T10061006 10006 21006 401891006 51005 $
KWLD 200549Z AUTO 35009KT 2SM BR OVC002 M01/M01 A2979 RMK AO2 $
KWLD 200503Z AUTO 32006KT 1 1/2SM BR OVC002 00/00 A2979 RMK AO2 PRESRR T00000000 $
KWLD 200454Z AUTO 02004KT 1 3/4SM BR OVC003 00/00 A2977 RMK AO2 SLP088 T00000000 $
KWLD 200421Z AUTO 04009KT 2 1/2SM BR OVC003 M01/M01 A2976 RMK AO2 T10061006 $
KWLD 200354Z AUTO 04011KT 3SM BR OVC004 00/00 A2977 RMK AO2 SLP087 T00000000 $
KWLD 200254Z AUTO 02008KT 8SM OVC007 00/M01 A2978 RMK AO2 SLP089 T00001006 55008 $
KWLD 200205Z AUTO 04010KT 10SM OVC009 01/M01 A2978 RMK AO2 T00061006 $
KWLD 200154Z AUTO 07007KT 10SM OVC010 01/M01 A2977 RMK AO2 SLP081 T00061011 $
KWLD 200120Z AUTO 04007KT 10SM OVC010 00/M01 A2979 RMK AO2 T00001011 $
KWLD 200054Z AUTO 04009KT 10SM OVC009 00/M01 A2980 RMK AO2 SLP092 T00001011 $
KWLD 200041Z AUTO 04008KT 10SM OVC009 00/M01 A2980 RMK AO2 T00001011 $
KWLD 192354Z AUTO 01009KT 10SM OVC010 01/M02 A2981 RMK AO2 SLP093 T00061017 10022 20000 53003 $